sensor_id;sensor_type;location;lat;lon;timestamp;P1;durP1;ratioP1;P2;durP2;ratioP2
71351;SDS011;59159;51.652;4.864;2024-01-16T00:00:00;2.30;;;0.57;;
71351;SDS011;59159;51.652;4.864;2024-01-16T00:02:27;1.92;;;0.50;;
71351;SDS011;59159;51.652;4.864;2024-01-16T00:04:53;3.40;;;0.60;;
71351;SDS011;59159;51.652;4.864;2024-01-16T00:07:19;2.75;;;0.68;;
71351;SDS011;59159;51.652;4.864;2024-01-16T00:09:46;2.70;;;0.63;;
71351;SDS011;59159;51.652;4.864;2024-01-16T00:12:12;2.53;;;0.50;;
71351;SDS011;59159;51.652;4.864;2024-01-16T00:14:38;2.25;;;0.50;;
71351;SDS011;59159;51.652;4.864;2024-01-16T00:17:04;2.72;;;0.68;;
71351;SDS011;59159;51.652;4.864;2024-01-16T00:19:31;2.07;;;0.60;;
71351;SDS011;59159;51.652;4.864;2024-01-16T00:21:57;4.55;;;1.05;;
71351;SDS011;59159;51.652;4.864;2024-01-16T00:24:23;2.67;;;0.63;;
71351;SDS011;59159;51.652;4.864;2024-01-16T00:26:49;2.58;;;0.70;;
71351;SDS011;59159;51.652;4.864;2024-01-16T00:29:15;2.90;;;0.57;;
71351;SDS011;59159;51.652;4.864;2024-01-16T00:31:41;3.35;;;0.70;;
71351;SDS011;59159;51.652;4.864;2024-01-16T00:34:07;2.95;;;0.50;;
71351;SDS011;59159;51.652;4.864;2024-01-16T00:36:33;1.77;;;0.40;;
71351;SDS011;59159;51.652;4.864;2024-01-16T00:38:59;3.58;;;0.70;;
71351;SDS011;59159;51.652;4.864;2024-01-16T00:41:25;2.65;;;0.60;;
71351;SDS011;59159;51.652;4.864;2024-01-16T00:43:52;2.27;;;0.63;;
71351;SDS011;59159;51.652;4.864;2024-01-16T00:46:18;2.35;;;0.68;;
71351;SDS011;59159;51.652;4.864;2024-01-16T00:48:44;2.45;;;0.57;;
71351;SDS011;59159;51.652;4.864;2024-01-16T00:51:10;1.35;;;0.50;;
71351;SDS011;59159;51.652;4.864;2024-01-16T00:53:39;3.90;;;0.70;;
71351;SDS011;59159;51.652;4.864;2024-01-16T00:56:05;2.22;;;0.60;;
71351;SDS011;59159;51.652;4.864;2024-01-16T00:58:31;2.72;;;0.70;;
71351;SDS011;59159;51.652;4.864;2024-01-16T01:00:57;2.10;;;0.47;;
71351;SDS011;59159;51.652;4.864;2024-01-16T01:03:23;2.60;;;0.63;;
71351;SDS011;59159;51.652;4.864;2024-01-16T01:05:49;2.28;;;0.70;;
71351;SDS011;59159;51.652;4.864;2024-01-16T01:08:15;2.13;;;0.40;;
71351;SDS011;59159;51.652;4.864;2024-01-16T01:10:41;2.65;;;0.60;;
71351;SDS011;59159;51.652;4.864;2024-01-16T01:13:07;2.55;;;0.50;;
71351;SDS011;59159;51.652;4.864;2024-01-16T01:15:33;2.28;;;0.65;;
71351;SDS011;59159;51.652;4.864;2024-01-16T01:17:59;2.60;;;0.60;;
71351;SDS011;59159;51.652;4.864;2024-01-16T01:20:25;2.22;;;0.50;;
71351;SDS011;59159;51.652;4.864;2024-01-16T01:22:51;1.52;;;0.45;;
71351;SDS011;59159;51.652;4.864;2024-01-16T01:25:17;2.50;;;0.57;;
71351;SDS011;59159;51.652;4.864;2024-01-16T01:27:43;2.50;;;0.70;;
71351;SDS011;59159;51.652;4.864;2024-01-16T01:30:09;2.53;;;0.57;;
71351;SDS011;59159;51.652;4.864;2024-01-16T01:32:36;2.23;;;0.40;;
71351;SDS011;59159;51.652;4.864;2024-01-16T01:35:02;2.17;;;0.50;;
71351;SDS011;59159;51.652;4.864;2024-01-16T01:37:28;1.73;;;0.47;;
71351;SDS011;59159;51.652;4.864;2024-01-16T01:39:54;3.10;;;0.50;;
71351;SDS011;59159;51.652;4.864;2024-01-16T01:42:20;2.17;;;0.50;;
71351;SDS011;59159;51.652;4.864;2024-01-16T01:44:46;1.80;;;0.47;;
71351;SDS011;59159;51.652;4.864;2024-01-16T01:47:12;2.40;;;0.50;;
71351;SDS011;59159;51.652;4.864;2024-01-16T01:49:38;2.27;;;0.50;;
71351;SDS011;59159;51.652;4.864;2024-01-16T01:52:05;2.05;;;0.50;;
71351;SDS011;59159;51.652;4.864;2024-01-16T01:54:31;3.92;;;0.70;;
71351;SDS011;59159;51.652;4.864;2024-01-16T01:56:58;3.03;;;0.60;;
71351;SDS011;59159;51.652;4.864;2024-01-16T01:59:24;3.72;;;0.60;;
71351;SDS011;59159;51.652;4.864;2024-01-16T02:01:51;2.70;;;0.70;;
71351;SDS011;59159;51.652;4.864;2024-01-16T02:04:17;1.88;;;0.57;;
71351;SDS011;59159;51.652;4.864;2024-01-16T02:06:44;2.77;;;0.90;;
71351;SDS011;59159;51.652;4.864;2024-01-16T02:09:11;2.08;;;0.50;;
71351;SDS011;59159;51.652;4.864;2024-01-16T02:11:38;2.22;;;0.43;;
71351;SDS011;59159;51.652;4.864;2024-01-16T02:14:04;3.10;;;0.60;;
71351;SDS011;59159;51.652;4.864;2024-01-16T02:16:35;2.13;;;0.50;;
71351;SDS011;59159;51.652;4.864;2024-01-16T02:19:02;2.35;;;0.50;;
71351;SDS011;59159;51.652;4.864;2024-01-16T02:21:28;2.07;;;0.50;;
71351;SDS011;59159;51.652;4.864;2024-01-16T02:23:54;2.80;;;0.63;;
71351;SDS011;59159;51.652;4.864;2024-01-16T02:26:20;3.00;;;0.68;;
71351;SDS011;59159;51.652;4.864;2024-01-16T02:28:46;2.53;;;0.90;;
71351;SDS011;59159;51.652;4.864;2024-01-16T02:31:12;2.23;;;0.40;;
71351;SDS011;59159;51.652;4.864;2024-01-16T02:33:38;1.98;;;0.50;;
71351;SDS011;59159;51.652;4.864;2024-01-16T02:36:04;2.13;;;0.60;;
71351;SDS011;59159;51.652;4.864;2024-01-16T02:38:30;2.53;;;0.60;;
71351;SDS011;59159;51.652;4.864;2024-01-16T02:40:56;2.28;;;0.57;;
71351;SDS011;59159;51.652;4.864;2024-01-16T02:43:22;2.10;;;0.43;;
71351;SDS011;59159;51.652;4.864;2024-01-16T02:45:50;2.77;;;0.70;;
71351;SDS011;59159;51.652;4.864;2024-01-16T02:48:17;1.90;;;0.43;;
71351;SDS011;59159;51.652;4.864;2024-01-16T02:50:43;2.17;;;0.77;;
71351;SDS011;59159;51.652;4.864;2024-01-16T02:53:09;2.40;;;0.80;;
71351;SDS011;59159;51.652;4.864;2024-01-16T02:55:34;2.17;;;0.60;;
71351;SDS011;59159;51.652;4.864;2024-01-16T02:58:00;2.38;;;0.57;;
71351;SDS011;59159;51.652;4.864;2024-01-16T03:00:28;2.08;;;0.50;;
71351;SDS011;59159;51.652;4.864;2024-01-16T03:02:54;1.00;;;0.33;;
71351;SDS011;59159;51.652;4.864;2024-01-16T03:05:20;2.67;;;0.60;;
71351;SDS011;59159;51.652;4.864;2024-01-16T03:07:46;2.63;;;0.50;;
71351;SDS011;59159;51.652;4.864;2024-01-16T03:10:12;3.87;;;0.60;;
71351;SDS011;59159;51.652;4.864;2024-01-16T03:12:38;2.65;;;0.50;;
71351;SDS011;59159;51.652;4.864;2024-01-16T03:15:04;2.15;;;0.50;;
71351;SDS011;59159;51.652;4.864;2024-01-16T03:17:30;3.45;;;0.70;;
71351;SDS011;59159;51.652;4.864;2024-01-16T03:19:56;4.40;;;0.90;;
71351;SDS011;59159;51.652;4.864;2024-01-16T03:22:22;2.03;;;0.52;;
71351;SDS011;59159;51.652;4.864;2024-01-16T03:24:49;2.67;;;0.88;;
71351;SDS011;59159;51.652;4.864;2024-01-16T03:27:15;3.37;;;0.57;;
71351;SDS011;59159;51.652;4.864;2024-01-16T03:29:41;1.60;;;0.50;;
71351;SDS011;59159;51.652;4.864;2024-01-16T03:32:07;2.85;;;0.52;;
71351;SDS011;59159;51.652;4.864;2024-01-16T03:34:33;3.63;;;0.80;;
71351;SDS011;59159;51.652;4.864;2024-01-16T03:36:59;3.90;;;0.90;;
71351;SDS011;59159;51.652;4.864;2024-01-16T03:39:25;3.45;;;0.82;;
71351;SDS011;59159;51.652;4.864;2024-01-16T03:41:51;3.00;;;0.70;;
71351;SDS011;59159;51.652;4.864;2024-01-16T03:44:17;4.33;;;0.70;;
71351;SDS011;59159;51.652;4.864;2024-01-16T03:46:43;3.22;;;0.80;;
71351;SDS011;59159;51.652;4.864;2024-01-16T03:49:09;2.95;;;0.77;;
71351;SDS011;59159;51.652;4.864;2024-01-16T03:51:35;3.87;;;0.80;;
71351;SDS011;59159;51.652;4.864;2024-01-16T03:54:01;3.78;;;0.77;;
71351;SDS011;59159;51.652;4.864;2024-01-16T03:56:27;2.42;;;0.60;;
71351;SDS011;59159;51.652;4.864;2024-01-16T03:58:54;3.37;;;0.80;;
71351;SDS011;59159;51.652;4.864;2024-01-16T04:01:29;3.13;;;0.70;;
71351;SDS011;59159;51.652;4.864;2024-01-16T04:03:55;3.60;;;0.80;;
71351;SDS011;59159;51.652;4.864;2024-01-16T04:06:21;3.70;;;0.93;;
71351;SDS011;59159;51.652;4.864;2024-01-16T04:08:47;3.20;;;0.60;;
71351;SDS011;59159;51.652;4.864;2024-01-16T04:11:13;3.38;;;0.70;;
71351;SDS011;59159;51.652;4.864;2024-01-16T04:13:39;4.07;;;0.85;;
71351;SDS011;59159;51.652;4.864;2024-01-16T04:16:06;3.83;;;1.00;;
71351;SDS011;59159;51.652;4.864;2024-01-16T04:18:38;2.78;;;0.70;;
71351;SDS011;59159;51.652;4.864;2024-01-16T04:21:05;3.25;;;0.90;;
71351;SDS011;59159;51.652;4.864;2024-01-16T04:23:31;3.30;;;0.93;;
71351;SDS011;59159;51.652;4.864;2024-01-16T04:25:57;3.65;;;0.90;;
71351;SDS011;59159;51.652;4.864;2024-01-16T04:28:23;3.67;;;0.73;;
71351;SDS011;59159;51.652;4.864;2024-01-16T04:30:50;2.92;;;0.82;;
71351;SDS011;59159;51.652;4.864;2024-01-16T04:33:16;4.83;;;1.00;;
71351;SDS011;59159;51.652;4.864;2024-01-16T04:35:42;4.00;;;0.70;;
71351;SDS011;59159;51.652;4.864;2024-01-16T04:38:08;3.97;;;0.80;;
71351;SDS011;59159;51.652;4.864;2024-01-16T04:40:34;3.70;;;0.90;;
71351;SDS011;59159;51.652;4.864;2024-01-16T04:43:00;3.65;;;0.70;;
71351;SDS011;59159;51.652;4.864;2024-01-16T04:45:26;3.45;;;0.93;;
71351;SDS011;59159;51.652;4.864;2024-01-16T04:47:52;2.67;;;0.70;;
71351;SDS011;59159;51.652;4.864;2024-01-16T04:50:18;3.47;;;1.00;;
71351;SDS011;59159;51.652;4.864;2024-01-16T04:52:44;3.53;;;0.85;;
71351;SDS011;59159;51.652;4.864;2024-01-16T04:55:10;3.25;;;1.08;;
71351;SDS011;59159;51.652;4.864;2024-01-16T04:57:36;3.33;;;0.90;;
71351;SDS011;59159;51.652;4.864;2024-01-16T05:00:02;2.83;;;0.68;;
71351;SDS011;59159;51.652;4.864;2024-01-16T05:02:32;4.10;;;0.90;;
71351;SDS011;59159;51.652;4.864;2024-01-16T05:04:58;4.77;;;1.00;;
71351;SDS011;59159;51.652;4.864;2024-01-16T05:07:24;4.47;;;0.80;;
71351;SDS011;59159;51.652;4.864;2024-01-16T05:09:51;3.97;;;0.82;;
71351;SDS011;59159;51.652;4.864;2024-01-16T05:12:17;4.07;;;1.03;;
71351;SDS011;59159;51.652;4.864;2024-01-16T05:14:43;3.53;;;0.90;;
71351;SDS011;59159;51.652;4.864;2024-01-16T05:17:09;2.85;;;0.75;;
71351;SDS011;59159;51.652;4.864;2024-01-16T05:19:35;3.47;;;0.90;;
71351;SDS011;59159;51.652;4.864;2024-01-16T05:22:01;3.47;;;0.73;;
71351;SDS011;59159;51.652;4.864;2024-01-16T05:24:28;3.10;;;0.98;;
71351;SDS011;59159;51.652;4.864;2024-01-16T05:26:53;3.65;;;0.70;;
71351;SDS011;59159;51.652;4.864;2024-01-16T05:29:19;4.20;;;1.00;;
71351;SDS011;59159;51.652;4.864;2024-01-16T05:31:45;2.55;;;0.70;;
71351;SDS011;59159;51.652;4.864;2024-01-16T05:34:11;3.88;;;0.80;;
71351;SDS011;59159;51.652;4.864;2024-01-16T05:36:37;4.33;;;0.90;;
71351;SDS011;59159;51.652;4.864;2024-01-16T05:39:04;3.83;;;0.60;;
71351;SDS011;59159;51.652;4.864;2024-01-16T05:41:33;4.35;;;0.82;;
71351;SDS011;59159;51.652;4.864;2024-01-16T05:43:59;2.75;;;0.90;;
71351;SDS011;59159;51.652;4.864;2024-01-16T05:46:28;3.57;;;0.90;;
71351;SDS011;59159;51.652;4.864;2024-01-16T05:48:54;4.85;;;0.88;;
71351;SDS011;59159;51.652;4.864;2024-01-16T05:51:20;3.80;;;0.80;;
71351;SDS011;59159;51.652;4.864;2024-01-16T05:53:46;1.87;;;0.60;;
71351;SDS011;59159;51.652;4.864;2024-01-16T05:56:13;3.83;;;0.80;;
71351;SDS011;59159;51.652;4.864;2024-01-16T05:58:39;5.00;;;1.08;;
71351;SDS011;59159;51.652;4.864;2024-01-16T06:01:05;3.53;;;0.90;;
71351;SDS011;59159;51.652;4.864;2024-01-16T06:03:31;3.78;;;0.70;;
71351;SDS011;59159;51.652;4.864;2024-01-16T06:05:57;4.68;;;0.80;;
71351;SDS011;59159;51.652;4.864;2024-01-16T06:08:23;4.85;;;0.90;;
71351;SDS011;59159;51.652;4.864;2024-01-16T06:10:49;4.00;;;0.80;;
71351;SDS011;59159;51.652;4.864;2024-01-16T06:13:17;4.65;;;1.00;;
71351;SDS011;59159;51.652;4.864;2024-01-16T06:15:43;4.50;;;1.05;;
71351;SDS011;59159;51.652;4.864;2024-01-16T06:18:09;3.27;;;0.70;;
71351;SDS011;59159;51.652;4.864;2024-01-16T06:20:35;2.78;;;0.80;;
71351;SDS011;59159;51.652;4.864;2024-01-16T06:23:01;4.90;;;1.40;;
71351;SDS011;59159;51.652;4.864;2024-01-16T06:25:27;4.63;;;0.80;;
71351;SDS011;59159;51.652;4.864;2024-01-16T06:27:53;4.82;;;0.93;;
71351;SDS011;59159;51.652;4.864;2024-01-16T06:30:20;4.13;;;0.85;;
71351;SDS011;59159;51.652;4.864;2024-01-16T06:32:46;6.03;;;1.15;;
71351;SDS011;59159;51.652;4.864;2024-01-16T06:35:12;4.57;;;0.97;;
71351;SDS011;59159;51.652;4.864;2024-01-16T06:37:38;3.92;;;0.93;;
71351;SDS011;59159;51.652;4.864;2024-01-16T06:40:05;3.97;;;0.70;;
71351;SDS011;59159;51.652;4.864;2024-01-16T06:42:31;5.07;;;1.10;;
71351;SDS011;59159;51.652;4.864;2024-01-16T06:44:58;4.80;;;0.95;;
71351;SDS011;59159;51.652;4.864;2024-01-16T06:47:24;3.90;;;0.98;;
71351;SDS011;59159;51.652;4.864;2024-01-16T06:49:50;6.17;;;1.37;;
71351;SDS011;59159;51.652;4.864;2024-01-16T06:52:16;6.05;;;1.25;;
71351;SDS011;59159;51.652;4.864;2024-01-16T06:54:42;4.85;;;1.30;;
71351;SDS011;59159;51.652;4.864;2024-01-16T06:57:08;3.42;;;0.90;;
71351;SDS011;59159;51.652;4.864;2024-01-16T06:59:34;5.90;;;1.20;;
71351;SDS011;59159;51.652;4.864;2024-01-16T07:02:00;3.38;;;0.85;;
71351;SDS011;59159;51.652;4.864;2024-01-16T07:04:26;4.38;;;1.38;;
71351;SDS011;59159;51.652;4.864;2024-01-16T07:06:52;3.63;;;0.70;;
71351;SDS011;59159;51.652;4.864;2024-01-16T07:09:18;5.72;;;0.98;;
71351;SDS011;59159;51.652;4.864;2024-01-16T07:11:45;4.75;;;0.73;;
71351;SDS011;59159;51.652;4.864;2024-01-16T07:14:11;4.10;;;1.00;;
71351;SDS011;59159;51.652;4.864;2024-01-16T07:16:37;4.07;;;0.80;;
71351;SDS011;59159;51.652;4.864;2024-01-16T07:19:04;3.90;;;0.73;;
71351;SDS011;59159;51.652;4.864;2024-01-16T07:21:30;3.58;;;0.80;;
71351;SDS011;59159;51.652;4.864;2024-01-16T07:23:56;3.63;;;0.97;;
71351;SDS011;59159;51.652;4.864;2024-01-16T07:26:22;4.90;;;1.15;;
71351;SDS011;59159;51.652;4.864;2024-01-16T07:28:48;4.88;;;1.00;;
71351;SDS011;59159;51.652;4.864;2024-01-16T07:31:14;4.47;;;1.20;;
71351;SDS011;59159;51.652;4.864;2024-01-16T07:33:41;3.30;;;1.17;;
71351;SDS011;59159;51.652;4.864;2024-01-16T07:36:08;3.28;;;0.75;;
71351;SDS011;59159;51.652;4.864;2024-01-16T07:38:34;4.83;;;1.00;;
71351;SDS011;59159;51.652;4.864;2024-01-16T07:41:04;3.35;;;1.00;;
71351;SDS011;59159;51.652;4.864;2024-01-16T07:43:30;4.47;;;1.00;;
71351;SDS011;59159;51.652;4.864;2024-01-16T07:45:56;4.25;;;1.00;;
71351;SDS011;59159;51.652;4.864;2024-01-16T07:48:22;4.03;;;0.97;;
71351;SDS011;59159;51.652;4.864;2024-01-16T07:50:48;4.22;;;0.85;;
71351;SDS011;59159;51.652;4.864;2024-01-16T07:53:14;3.95;;;0.70;;
71351;SDS011;59159;51.652;4.864;2024-01-16T07:55:43;5.70;;;1.00;;
71351;SDS011;59159;51.652;4.864;2024-01-16T07:58:12;3.55;;;0.90;;
71351;SDS011;59159;51.652;4.864;2024-01-16T08:00:38;3.55;;;0.75;;
71351;SDS011;59159;51.652;4.864;2024-01-16T08:03:07;6.10;;;1.17;;
71351;SDS011;59159;51.652;4.864;2024-01-16T08:05:34;2.80;;;0.70;;
71351;SDS011;59159;51.652;4.864;2024-01-16T08:08:00;4.45;;;1.05;;
71351;SDS011;59159;51.652;4.864;2024-01-16T08:10:26;4.45;;;1.23;;
71351;SDS011;59159;51.652;4.864;2024-01-16T08:12:52;3.97;;;0.90;;
71351;SDS011;59159;51.652;4.864;2024-01-16T08:15:18;3.53;;;0.80;;
71351;SDS011;59159;51.652;4.864;2024-01-16T08:17:44;3.75;;;0.88;;
71351;SDS011;59159;51.652;4.864;2024-01-16T08:20:10;3.30;;;0.87;;
71351;SDS011;59159;51.652;4.864;2024-01-16T08:22:36;4.20;;;1.02;;
71351;SDS011;59159;51.652;4.864;2024-01-16T08:25:02;3.10;;;0.70;;
71351;SDS011;59159;51.652;4.864;2024-01-16T08:27:30;5.37;;;1.23;;
71351;SDS011;59159;51.652;4.864;2024-01-16T08:29:56;5.18;;;1.10;;
71351;SDS011;59159;51.652;4.864;2024-01-16T08:32:22;4.68;;;0.90;;
71351;SDS011;59159;51.652;4.864;2024-01-16T08:34:48;4.72;;;1.55;;
71351;SDS011;59159;51.652;4.864;2024-01-16T08:37:14;5.70;;;1.10;;
71351;SDS011;59159;51.652;4.864;2024-01-16T08:39:40;4.20;;;1.10;;
71351;SDS011;59159;51.652;4.864;2024-01-16T08:42:06;3.22;;;0.82;;
71351;SDS011;59159;51.652;4.864;2024-01-16T08:44:32;3.23;;;0.80;;
71351;SDS011;59159;51.652;4.864;2024-01-16T08:46:58;3.50;;;0.95;;
71351;SDS011;59159;51.652;4.864;2024-01-16T08:49:25;3.67;;;0.80;;
71351;SDS011;59159;51.652;4.864;2024-01-16T08:51:52;5.23;;;0.80;;
71351;SDS011;59159;51.652;4.864;2024-01-16T08:54:18;4.28;;;0.90;;
71351;SDS011;59159;51.652;4.864;2024-01-16T08:56:44;5.78;;;1.00;;
71351;SDS011;59159;51.652;4.864;2024-01-16T08:59:10;5.25;;;1.40;;
71351;SDS011;59159;51.652;4.864;2024-01-16T09:01:36;4.37;;;1.30;;
71351;SDS011;59159;51.652;4.864;2024-01-16T09:04:02;5.07;;;1.05;;
71351;SDS011;59159;51.652;4.864;2024-01-16T09:06:28;3.50;;;1.00;;
71351;SDS011;59159;51.652;4.864;2024-01-16T09:08:54;3.13;;;0.77;;
71351;SDS011;59159;51.652;4.864;2024-01-16T09:11:20;4.38;;;0.82;;
71351;SDS011;59159;51.652;4.864;2024-01-16T09:13:46;3.78;;;0.85;;
71351;SDS011;59159;51.652;4.864;2024-01-16T09:16:12;3.03;;;0.80;;
71351;SDS011;59159;51.652;4.864;2024-01-16T09:18:39;3.45;;;0.90;;
71351;SDS011;59159;51.652;4.864;2024-01-16T09:21:05;5.18;;;1.50;;
71351;SDS011;59159;51.652;4.864;2024-01-16T09:23:31;3.15;;;0.75;;
71351;SDS011;59159;51.652;4.864;2024-01-16T09:25:57;4.47;;;0.87;;
71351;SDS011;59159;51.652;4.864;2024-01-16T09:28:23;3.38;;;0.77;;
71351;SDS011;59159;51.652;4.864;2024-01-16T09:30:49;3.72;;;0.90;;
71351;SDS011;59159;51.652;4.864;2024-01-16T09:33:16;4.80;;;0.90;;
71351;SDS011;59159;51.652;4.864;2024-01-16T09:35:42;4.45;;;0.70;;
71351;SDS011;59159;51.652;4.864;2024-01-16T09:38:08;2.97;;;0.90;;
71351;SDS011;59159;51.652;4.864;2024-01-16T09:40:34;3.43;;;0.70;;
71351;SDS011;59159;51.652;4.864;2024-01-16T09:43:03;3.65;;;0.80;;
71351;SDS011;59159;51.652;4.864;2024-01-16T09:45:29;3.95;;;1.00;;
71351;SDS011;59159;51.652;4.864;2024-01-16T09:47:56;3.70;;;0.68;;
71351;SDS011;59159;51.652;4.864;2024-01-16T09:50:22;3.03;;;0.80;;
71351;SDS011;59159;51.652;4.864;2024-01-16T09:52:48;3.05;;;0.70;;
71351;SDS011;59159;51.652;4.864;2024-01-16T09:55:15;4.70;;;1.17;;
71351;SDS011;59159;51.652;4.864;2024-01-16T09:57:41;3.00;;;0.77;;
71351;SDS011;59159;51.652;4.864;2024-01-16T10:00:11;3.50;;;0.80;;
71351;SDS011;59159;51.652;4.864;2024-01-16T10:02:40;3.30;;;0.90;;
71351;SDS011;59159;51.652;4.864;2024-01-16T10:05:07;3.40;;;0.73;;
71351;SDS011;59159;51.652;4.864;2024-01-16T10:07:35;4.50;;;0.80;;
71351;SDS011;59159;51.652;4.864;2024-01-16T10:10:03;3.50;;;0.70;;
71351;SDS011;59159;51.652;4.864;2024-01-16T10:12:29;3.22;;;0.95;;
71351;SDS011;59159;51.652;4.864;2024-01-16T10:14:55;3.80;;;0.87;;
71351;SDS011;59159;51.652;4.864;2024-01-16T10:17:21;3.53;;;0.88;;
71351;SDS011;59159;51.652;4.864;2024-01-16T10:19:51;4.00;;;0.90;;
71351;SDS011;59159;51.652;4.864;2024-01-16T10:22:21;2.80;;;0.77;;
71351;SDS011;59159;51.652;4.864;2024-01-16T10:24:47;3.20;;;0.88;;
71351;SDS011;59159;51.652;4.864;2024-01-16T10:27:16;3.60;;;0.68;;
71351;SDS011;59159;51.652;4.864;2024-01-16T10:29:55;5.27;;;1.00;;
71351;SDS011;59159;51.652;4.864;2024-01-16T10:32:34;4.47;;;1.08;;
71351;SDS011;59159;51.652;4.864;2024-01-16T10:37:52;2.97;;;0.70;;
71351;SDS011;59159;51.652;4.864;2024-01-16T10:40:24;5.13;;;1.20;;
71351;SDS011;59159;51.652;4.864;2024-01-16T10:42:58;3.25;;;0.82;;
71351;SDS011;59159;51.652;4.864;2024-01-16T10:45:24;3.05;;;0.90;;
71351;SDS011;59159;51.652;4.864;2024-01-16T10:48:03;3.77;;;0.80;;
71351;SDS011;59159;51.652;4.864;2024-01-16T10:50:29;3.15;;;1.08;;
71351;SDS011;59159;51.652;4.864;2024-01-16T10:52:55;5.20;;;1.08;;
71351;SDS011;59159;51.652;4.864;2024-01-16T10:55:24;3.57;;;0.80;;
71351;SDS011;59159;51.652;4.864;2024-01-16T10:57:50;3.53;;;0.93;;
71351;SDS011;59159;51.652;4.864;2024-01-16T11:00:20;7.50;;;2.15;;
71351;SDS011;59159;51.652;4.864;2024-01-16T11:02:50;7.28;;;1.83;;
71351;SDS011;59159;51.652;4.864;2024-01-16T11:05:17;7.73;;;2.10;;
71351;SDS011;59159;51.652;4.864;2024-01-16T11:07:43;8.40;;;1.80;;
71351;SDS011;59159;51.652;4.864;2024-01-16T11:10:10;5.85;;;1.50;;
71351;SDS011;59159;51.652;4.864;2024-01-16T11:12:38;6.33;;;1.40;;
71351;SDS011;59159;51.652;4.864;2024-01-16T11:15:08;6.38;;;1.48;;
71351;SDS011;59159;51.652;4.864;2024-01-16T11:17:37;7.25;;;1.33;;
71351;SDS011;59159;51.652;4.864;2024-01-16T11:20:05;4.87;;;1.27;;
71351;SDS011;59159;51.652;4.864;2024-01-16T11:22:35;7.18;;;1.20;;
71351;SDS011;59159;51.652;4.864;2024-01-16T11:25:13;5.38;;;1.17;;
71351;SDS011;59159;51.652;4.864;2024-01-16T11:27:40;5.55;;;1.35;;
71351;SDS011;59159;51.652;4.864;2024-01-16T11:30:07;4.90;;;1.27;;
71351;SDS011;59159;51.652;4.864;2024-01-16T11:32:42;5.72;;;1.40;;
71351;SDS011;59159;51.652;4.864;2024-01-16T11:35:10;4.63;;;1.17;;
71351;SDS011;59159;51.652;4.864;2024-01-16T11:37:36;6.10;;;1.30;;
71351;SDS011;59159;51.652;4.864;2024-01-16T11:42:46;7.32;;;1.15;;
71351;SDS011;59159;51.652;4.864;2024-01-16T11:48:07;5.97;;;1.02;;
71351;SDS011;59159;51.652;4.864;2024-01-16T11:50:34;5.30;;;1.40;;
71351;SDS011;59159;51.652;4.864;2024-01-16T11:53:00;4.43;;;1.20;;
71351;SDS011;59159;51.652;4.864;2024-01-16T11:55:27;4.57;;;1.00;;
71351;SDS011;59159;51.652;4.864;2024-01-16T12:00:37;5.10;;;1.02;;
71351;SDS011;59159;51.652;4.864;2024-01-16T12:03:05;3.50;;;0.80;;
71351;SDS011;59159;51.652;4.864;2024-01-16T12:05:32;4.35;;;0.90;;
71351;SDS011;59159;51.652;4.864;2024-01-16T12:07:58;3.78;;;0.90;;
71351;SDS011;59159;51.652;4.864;2024-01-16T12:10:24;3.50;;;1.17;;
71351;SDS011;59159;51.652;4.864;2024-01-16T12:12:51;3.88;;;0.95;;
71351;SDS011;59159;51.652;4.864;2024-01-16T12:15:18;5.35;;;0.93;;
71351;SDS011;59159;51.652;4.864;2024-01-16T12:17:57;4.70;;;1.23;;
71351;SDS011;59159;51.652;4.864;2024-01-16T12:20:24;4.13;;;0.90;;
71351;SDS011;59159;51.652;4.864;2024-01-16T12:23:04;4.85;;;1.20;;
71351;SDS011;59159;51.652;4.864;2024-01-16T12:25:31;3.85;;;0.82;;
71351;SDS011;59159;51.652;4.864;2024-01-16T12:28:01;4.20;;;0.90;;
71351;SDS011;59159;51.652;4.864;2024-01-16T12:30:30;4.15;;;0.80;;
71351;SDS011;59159;51.652;4.864;2024-01-16T12:33:09;3.70;;;1.05;;
71351;SDS011;59159;51.652;4.864;2024-01-16T12:35:39;4.23;;;1.07;;
71351;SDS011;59159;51.652;4.864;2024-01-16T12:38:06;3.33;;;0.88;;
71351;SDS011;59159;51.652;4.864;2024-01-16T12:40:34;4.55;;;1.00;;
71351;SDS011;59159;51.652;4.864;2024-01-16T12:43:01;4.43;;;0.93;;
71351;SDS011;59159;51.652;4.864;2024-01-16T12:45:27;3.43;;;0.93;;
71351;SDS011;59159;51.652;4.864;2024-01-16T12:47:53;3.38;;;1.00;;
71351;SDS011;59159;51.652;4.864;2024-01-16T12:50:22;4.55;;;1.10;;
71351;SDS011;59159;51.652;4.864;2024-01-16T12:52:49;4.70;;;1.00;;
71351;SDS011;59159;51.652;4.864;2024-01-16T12:55:15;4.18;;;1.08;;
71351;SDS011;59159;51.652;4.864;2024-01-16T12:57:44;3.47;;;1.08;;
71351;SDS011;59159;51.652;4.864;2024-01-16T13:00:23;3.47;;;0.80;;
71351;SDS011;59159;51.652;4.864;2024-01-16T13:02:50;4.78;;;0.95;;
71351;SDS011;59159;51.652;4.864;2024-01-16T13:05:17;3.42;;;0.82;;
71351;SDS011;59159;51.652;4.864;2024-01-16T13:07:44;3.58;;;1.00;;
71351;SDS011;59159;51.652;4.864;2024-01-16T13:10:11;4.77;;;1.20;;
71351;SDS011;59159;51.652;4.864;2024-01-16T13:12:41;4.05;;;1.13;;
71351;SDS011;59159;51.652;4.864;2024-01-16T13:15:07;3.50;;;0.90;;
71351;SDS011;59159;51.652;4.864;2024-01-16T13:17:34;4.30;;;0.97;;
71351;SDS011;59159;51.652;4.864;2024-01-16T13:20:00;3.97;;;0.80;;
71351;SDS011;59159;51.652;4.864;2024-01-16T13:22:28;4.40;;;0.95;;
71351;SDS011;59159;51.652;4.864;2024-01-16T13:24:54;5.97;;;1.10;;
71351;SDS011;59159;51.652;4.864;2024-01-16T13:27:21;4.47;;;1.15;;
71351;SDS011;59159;51.652;4.864;2024-01-16T13:29:47;3.33;;;0.80;;
71351;SDS011;59159;51.652;4.864;2024-01-16T13:32:13;3.88;;;1.00;;
71351;SDS011;59159;51.652;4.864;2024-01-16T13:34:39;5.97;;;1.07;;
71351;SDS011;59159;51.652;4.864;2024-01-16T13:37:11;3.10;;;0.70;;
71351;SDS011;59159;51.652;4.864;2024-01-16T13:39:39;5.30;;;1.10;;
71351;SDS011;59159;51.652;4.864;2024-01-16T13:42:05;5.27;;;0.90;;
71351;SDS011;59159;51.652;4.864;2024-01-16T13:44:31;5.13;;;1.00;;
71351;SDS011;59159;51.652;4.864;2024-01-16T13:46:57;3.88;;;0.98;;
71351;SDS011;59159;51.652;4.864;2024-01-16T13:49:23;4.00;;;1.17;;
71351;SDS011;59159;51.652;4.864;2024-01-16T13:51:49;4.05;;;0.80;;
71351;SDS011;59159;51.652;4.864;2024-01-16T13:54:16;3.08;;;0.88;;
71351;SDS011;59159;51.652;4.864;2024-01-16T13:56:42;3.75;;;0.70;;
71351;SDS011;59159;51.652;4.864;2024-01-16T13:59:09;4.23;;;1.13;;
71351;SDS011;59159;51.652;4.864;2024-01-16T14:01:35;5.35;;;1.10;;
71351;SDS011;59159;51.652;4.864;2024-01-16T14:04:01;3.42;;;0.90;;
71351;SDS011;59159;51.652;4.864;2024-01-16T14:06:27;4.57;;;0.90;;
71351;SDS011;59159;51.652;4.864;2024-01-16T14:08:53;4.05;;;0.93;;
71351;SDS011;59159;51.652;4.864;2024-01-16T14:11:19;3.90;;;0.90;;
71351;SDS011;59159;51.652;4.864;2024-01-16T14:13:45;4.17;;;1.07;;
71351;SDS011;59159;51.652;4.864;2024-01-16T14:16:11;2.33;;;0.70;;
71351;SDS011;59159;51.652;4.864;2024-01-16T14:18:37;3.95;;;0.90;;
71351;SDS011;59159;51.652;4.864;2024-01-16T14:21:03;3.70;;;0.80;;
71351;SDS011;59159;51.652;4.864;2024-01-16T14:23:29;3.83;;;0.90;;
71351;SDS011;59159;51.652;4.864;2024-01-16T14:25:55;4.28;;;1.05;;
71351;SDS011;59159;51.652;4.864;2024-01-16T14:28:21;4.57;;;0.90;;
71351;SDS011;59159;51.652;4.864;2024-01-16T14:30:51;4.37;;;0.90;;
71351;SDS011;59159;51.652;4.864;2024-01-16T14:33:17;4.43;;;0.90;;
71351;SDS011;59159;51.652;4.864;2024-01-16T14:35:43;3.88;;;1.10;;
71351;SDS011;59159;51.652;4.864;2024-01-16T14:38:10;4.53;;;0.83;;
71351;SDS011;59159;51.652;4.864;2024-01-16T14:40:35;3.80;;;0.90;;
71351;SDS011;59159;51.652;4.864;2024-01-16T14:43:01;4.97;;;0.90;;
71351;SDS011;59159;51.652;4.864;2024-01-16T14:45:29;2.80;;;0.80;;
71351;SDS011;59159;51.652;4.864;2024-01-16T14:47:56;2.83;;;0.70;;
71351;SDS011;59159;51.652;4.864;2024-01-16T14:50:22;3.28;;;1.00;;
71351;SDS011;59159;51.652;4.864;2024-01-16T14:52:49;4.85;;;1.10;;
71351;SDS011;59159;51.652;4.864;2024-01-16T14:55:15;4.73;;;0.90;;